Terminal Aerodrome Forecast
Issued by NWS

Home | Current Version | Previous Version | Text Only | Print | Product List | Glossary On
Versions: 1 2 3 4 5 6 7 8 9 10 11 12 13 14 15 16 17
754
FTUS46 KLOX 282331
TAFSBA
TAF
KSBA 282331Z 2900/2924 27008KT P6SM SKC
     FM290400 01008KT P6SM SKC
     FM290700 07008KT P6SM SCT250
     FM291600 17005KT P6SM SCT250
     FM292100 22008KT P6SM SCT250=

USA.gov is the U.S. government's official web portal to all federal, state and local government web resources and services.